createdAt,value
2018-12-10T00:00:20.160Z,9.05
2018-12-10T00:03:52.182Z,8.88
2018-12-10T00:06:21.289Z,8.92
2018-12-10T00:08:50.608Z,8.92
2018-12-10T00:11:19.668Z,8.73
2018-12-10T00:13:48.900Z,8.66
2018-12-10T00:16:18.149Z,8.91
2018-12-10T00:18:47.401Z,8.78
2018-12-10T00:21:16.563Z,8.45
2018-12-10T00:23:45.943Z,8.76
2018-12-10T00:26:15.071Z,8.67
2018-12-10T00:28:44.313Z,8.83
2018-12-10T00:31:13.559Z,9.13
2018-12-10T00:33:42.805Z,9.10
2018-12-10T00:36:11.929Z,9.29
2018-12-10T00:38:42.791Z,9.34
2018-12-10T00:41:11.695Z,9.55
2018-12-10T00:43:40.658Z,9.62
2018-12-10T00:46:09.582Z,9.47
2018-12-10T00:48:38.509Z,9.20
2018-12-10T00:51:07.412Z,8.99
2018-12-10T00:53:36.342Z,8.75
2018-12-10T00:56:05.240Z,8.77
2018-12-10T00:58:34.168Z,8.92
2018-12-10T01:01:03.066Z,8.68
2018-12-10T01:03:31.972Z,8.67
2018-12-10T01:06:00.855Z,8.67
2018-12-10T01:08:29.817Z,8.81
2018-12-10T01:10:58.680Z,8.81
2018-12-10T01:13:27.761Z,8.55
2018-12-10T01:15:56.663Z,8.70
2018-12-10T01:21:07.773Z,8.47
2018-12-10T01:23:36.732Z,8.61
2018-12-10T01:26:05.673Z,8.57
2018-12-10T01:28:34.671Z,8.37
2018-12-10T01:31:03.595Z,8.50
2018-12-10T01:33:32.586Z,8.65
2018-12-10T01:36:01.532Z,8.80
2018-12-10T01:38:30.462Z,8.92
2018-12-10T01:40:59.431Z,8.74
2018-12-10T01:43:28.391Z,8.61
2018-12-10T01:45:57.364Z,8.65
2018-12-10T01:48:26.275Z,8.48
2018-12-10T01:50:55.290Z,8.33
2018-12-10T01:53:24.239Z,8.50
2018-12-10T01:55:53.199Z,8.42
2018-12-10T01:58:22.100Z,8.64
2018-12-10T02:00:51.063Z,8.53
2018-12-10T02:03:19.999Z,8.79
2018-12-10T02:05:49.030Z,8.93
2018-12-10T02:08:17.959Z,8.66
2018-12-10T02:10:46.931Z,8.75
2018-12-10T02:13:15.853Z,8.67
2018-12-10T02:15:44.824Z,8.79
2018-12-10T02:18:13.725Z,8.67
2018-12-10T02:20:42.731Z,8.74
2018-12-10T02:23:11.635Z,8.62
2018-12-10T02:25:40.613Z,8.63
2018-12-10T02:28:09.541Z,8.38
2018-12-10T02:30:38.485Z,8.61
2018-12-10T02:33:07.382Z,8.75
2018-12-10T02:35:36.319Z,8.67
2018-12-10T02:38:05.235Z,8.46
2018-12-10T02:40:34.259Z,8.56
2018-12-10T02:43:03.156Z,8.62
2018-12-10T02:45:32.099Z,8.80
2018-12-10T02:48:01.089Z,8.77
2018-12-10T02:50:30.031Z,8.74
2018-12-10T02:52:58.969Z,8.76
2018-12-10T02:55:27.912Z,8.71
2018-12-10T02:57:56.898Z,8.92
2018-12-10T03:00:25.880Z,8.83
2018-12-10T03:02:54.827Z,8.97
2018-12-10T03:05:23.741Z,8.84
2018-12-10T03:07:52.695Z,8.72
2018-12-10T03:10:21.661Z,8.82
2018-12-10T03:12:50.653Z,8.98
2018-12-10T03:15:19.599Z,8.99
2018-12-10T03:17:48.552Z,8.89
2018-12-10T03:20:17.528Z,9.04
2018-12-10T03:22:46.522Z,8.71
2018-12-10T03:25:15.456Z,8.30
2018-12-10T03:27:44.624Z,8.15
2018-12-10T03:30:13.590Z,8.13
2018-12-10T03:32:42.784Z,8.43
2018-12-10T03:35:11.813Z,8.40
2018-12-10T03:37:40.785Z,8.63
2018-12-10T03:40:09.745Z,8.71
2018-12-10T03:42:38.739Z,8.75
2018-12-10T03:45:07.641Z,8.58
2018-12-10T03:47:36.619Z,8.38
2018-12-10T03:50:07.009Z,8.21
2018-12-10T03:52:36.042Z,8.25
2018-12-10T03:55:04.987Z,8.38
2018-12-10T03:57:33.947Z,8.39
2018-12-10T04:00:02.930Z,8.48
2018-12-10T04:02:31.851Z,8.53
2018-12-10T04:05:00.951Z,8.86
2018-12-10T04:07:29.883Z,8.74
2018-12-10T04:09:58.860Z,8.48
2018-12-10T04:12:27.839Z,8.38
2018-12-10T04:14:56.797Z,8.58
2018-12-10T04:17:25.704Z,8.50
2018-12-10T04:19:54.657Z,8.53
2018-12-10T04:22:23.564Z,8.44
2018-12-10T04:24:52.526Z,8.30
2018-12-10T04:27:21.458Z,8.27
2018-12-10T04:29:50.404Z,8.24
2018-12-10T04:32:19.344Z,7.91
2018-12-10T04:34:48.641Z,7.94
2018-12-10T04:37:17.552Z,8.08
2018-12-10T04:39:46.481Z,8.21
2018-12-10T04:42:15.387Z,7.93
2018-12-10T04:44:44.361Z,8.03
2018-12-10T04:47:13.283Z,8.43
2018-12-10T04:49:42.238Z,8.35
2018-12-10T04:52:11.171Z,8.34
2018-12-10T04:54:40.133Z,8.56
2018-12-10T04:57:09.042Z,8.79
2018-12-10T04:59:38.005Z,8.85
2018-12-10T05:02:06.911Z,9.12
2018-12-10T05:04:35.872Z,9.33
2018-12-10T05:07:04.775Z,9.09
2018-12-10T05:09:33.792Z,8.69
2018-12-10T05:12:02.720Z,8.58
2018-12-10T05:14:31.639Z,8.78
2018-12-10T05:17:00.611Z,8.62
2018-12-10T05:19:29.541Z,8.59
2018-12-10T05:21:58.532Z,8.71
2018-12-10T05:24:27.453Z,8.70
2018-12-10T05:26:56.381Z,8.89
2018-12-10T05:29:25.280Z,8.84
2018-12-10T05:31:54.251Z,8.61
2018-12-10T05:34:23.168Z,8.67
2018-12-10T05:36:52.171Z,8.32
2018-12-10T05:39:21.089Z,8.26
2018-12-10T05:41:50.057Z,8.00
2018-12-10T05:44:18.965Z,8.22
2018-12-10T05:46:47.991Z,8.20
2018-12-10T05:49:17.035Z,8.40
2018-12-10T05:51:45.989Z,8.33
2018-12-10T05:54:14.917Z,8.30
2018-12-10T05:56:43.933Z,8.31
2018-12-10T05:59:12.872Z,8.09
2018-12-10T06:01:41.834Z,8.22
2018-12-10T06:04:10.772Z,8.33
2018-12-10T06:06:39.752Z,8.18
2018-12-10T06:09:08.871Z,8.08
2018-12-10T06:11:37.864Z,8.30
2018-12-10T06:14:06.768Z,8.30
2018-12-10T06:16:35.759Z,8.04
2018-12-10T06:19:04.920Z,7.95
2018-12-10T06:21:34.199Z,8.08
2018-12-10T06:24:03.323Z,8.16
2018-12-10T06:26:32.539Z,7.95
2018-12-10T06:29:01.491Z,8.11
2018-12-10T06:31:30.493Z,8.09
2018-12-10T06:33:59.437Z,8.15
2018-12-10T06:36:28.382Z,8.38
2018-12-10T06:38:57.463Z,8.54
2018-12-10T06:41:26.403Z,8.27
2018-12-10T06:43:55.398Z,7.68
2018-12-10T06:46:24.315Z,7.67
2018-12-10T06:48:53.244Z,7.58
2018-12-10T06:51:22.169Z,7.41
2018-12-10T06:53:51.125Z,7.58
2018-12-10T06:56:20.054Z,7.47
2018-12-10T06:58:49.011Z,7.24
2018-12-10T07:01:17.936Z,7.17
2018-12-10T07:03:50.974Z,6.84
2018-12-10T07:06:19.932Z,6.77
2018-12-10T07:08:48.917Z,6.91
2018-12-10T07:11:17.869Z,7.01
2018-12-10T07:13:46.856Z,7.28
2018-12-10T07:16:15.767Z,7.20
2018-12-10T07:18:44.703Z,7.87
2018-12-10T07:21:13.624Z,8.20
2018-12-10T07:23:42.936Z,7.92
2018-12-10T07:26:12.067Z,7.97
2018-12-10T07:28:41.042Z,7.97
2018-12-10T07:31:10.015Z,7.68
2018-12-10T07:33:38.955Z,7.72
2018-12-10T07:36:08.071Z,7.68
2018-12-10T07:38:37.034Z,7.65
2018-12-10T07:41:06.545Z,7.84
2018-12-10T07:43:35.807Z,7.77
2018-12-10T07:46:04.771Z,7.63
2018-12-10T07:48:33.772Z,7.64
2018-12-10T07:51:02.977Z,7.69
2018-12-10T07:53:31.964Z,7.95
2018-12-10T07:56:00.933Z,7.83
2018-12-10T07:58:29.940Z,8.00
2018-12-10T08:00:58.935Z,8.23
2018-12-10T08:03:28.352Z,8.23
2018-12-10T08:05:57.384Z,8.04
2018-12-10T08:08:26.548Z,8.22
2018-12-10T08:10:55.523Z,8.39
2018-12-10T08:13:24.467Z,8.21
2018-12-10T08:15:53.448Z,7.81
2018-12-10T08:18:22.374Z,7.80
2018-12-10T08:20:51.717Z,7.62
2018-12-10T08:23:20.628Z,7.62
2018-12-10T08:25:50.256Z,7.54
2018-12-10T08:28:19.165Z,7.43
2018-12-10T08:30:48.266Z,7.46
2018-12-10T08:33:17.203Z,7.43
2018-12-10T08:35:46.184Z,7.46
2018-12-10T08:38:15.097Z,7.53
2018-12-10T08:40:44.061Z,7.42
2018-12-10T08:43:12.994Z,7.88
2018-12-10T08:45:42.013Z,7.92
2018-12-10T08:48:11.232Z,8.38
2018-12-10T08:50:40.234Z,7.79
2018-12-10T08:53:09.163Z,7.93
2018-12-10T08:55:38.123Z,8.47
2018-12-10T08:58:07.033Z,8.53
2018-12-10T09:00:36.016Z,8.80
2018-12-10T09:03:05.059Z,8.58
2018-12-10T09:05:34.020Z,8.51
2018-12-10T09:08:03.456Z,8.43
2018-12-10T09:10:34.707Z,8.46
2018-12-10T09:13:04.069Z,8.59
2018-12-10T09:15:33.162Z,8.28
2018-12-10T09:18:02.288Z,8.20
2018-12-10T09:20:31.305Z,8.39
2018-12-10T09:23:00.798Z,8.43
2018-12-10T09:25:29.801Z,8.56
2018-12-10T09:27:59.067Z,8.46
2018-12-10T09:30:28.651Z,8.56
2018-12-10T09:32:58.947Z,8.46
2018-12-10T09:35:28.061Z,8.43
2018-12-10T09:37:57.633Z,8.16
2018-12-10T09:40:26.963Z,8.26
2018-12-10T09:42:56.188Z,8.30
2018-12-10T09:45:25.182Z,7.93
2018-12-10T09:47:54.227Z,8.27
2018-12-10T09:50:23.142Z,8.34
2018-12-10T09:52:52.083Z,8.59
2018-12-10T09:55:20.984Z,8.11
2018-12-10T09:57:49.926Z,8.14
2018-12-10T10:00:18.843Z,7.89
2018-12-10T10:02:47.804Z,8.14
2018-12-10T10:05:16.693Z,8.15
2018-12-10T10:07:45.643Z,8.40
2018-12-10T10:10:14.572Z,8.60
2018-12-10T10:12:43.575Z,8.64
2018-12-10T10:15:12.517Z,8.79
2018-12-10T10:17:41.484Z,8.79
2018-12-10T10:20:10.456Z,8.79
2018-12-10T10:22:39.368Z,8.49
2018-12-10T10:25:08.316Z,8.52
2018-12-10T10:27:37.220Z,8.39
2018-12-10T10:30:06.427Z,8.19
2018-12-10T10:32:35.371Z,8.08
2018-12-10T10:35:04.360Z,8.12
2018-12-10T10:37:33.496Z,8.34
2018-12-10T10:40:04.523Z,8.42
2018-12-10T10:42:33.469Z,8.46
2018-12-10T10:45:02.422Z,8.52
2018-12-10T10:47:31.408Z,8.77
2018-12-10T10:50:00.336Z,8.97
2018-12-10T10:52:33.357Z,8.88
2018-12-10T10:55:00.263Z,9.10
2018-12-10T10:57:31.319Z,8.97
2018-12-10T11:00:00.222Z,8.75
2018-12-10T11:02:34.172Z,9.02
2018-12-10T11:05:03.123Z,9.24
2018-12-10T11:07:32.044Z,9.58
2018-12-10T11:10:01.027Z,9.82
2018-12-10T11:12:29.961Z,10.68
2018-12-10T11:14:58.877Z,11.06
2018-12-10T11:17:27.795Z,11.10
2018-12-10T11:19:57.773Z,11.47
2018-12-10T11:22:26.664Z,11.96
2018-12-10T11:24:55.588Z,11.72
2018-12-10T11:27:24.526Z,11.75
2018-12-10T11:29:53.559Z,11.07
2018-12-10T11:32:22.457Z,11.15
2018-12-10T11:34:51.473Z,11.57
2018-12-10T11:37:20.588Z,12.03
2018-12-10T11:39:49.498Z,11.57
2018-12-10T11:42:18.451Z,11.10
2018-12-10T11:44:48.333Z,10.70
2018-12-10T11:47:17.707Z,10.65
2018-12-10T11:49:46.671Z,10.35
2018-12-10T11:52:15.616Z,10.62
2018-12-10T11:54:44.539Z,10.35
2018-12-10T11:57:13.495Z,10.00
2018-12-10T11:59:42.411Z,9.63
2018-12-10T12:02:11.352Z,9.54
2018-12-10T12:04:40.277Z,9.13
2018-12-10T12:07:09.288Z,8.87
2018-12-10T12:09:38.297Z,8.75
2018-12-10T12:12:07.297Z,8.92
2018-12-10T12:14:36.239Z,8.97
2018-12-10T12:17:05.280Z,9.16
2018-12-10T12:19:34.823Z,9.17
2018-12-10T12:22:05.095Z,9.10
2018-12-10T12:24:34.348Z,9.83
2018-12-10T12:27:03.348Z,10.78
2018-12-10T12:29:32.486Z,11.06
2018-12-10T12:32:01.417Z,11.44
2018-12-10T12:34:30.907Z,11.25
2018-12-10T12:36:59.985Z,11.40
2018-12-10T12:39:28.887Z,11.41
2018-12-10T12:41:57.848Z,11.10
2018-12-10T12:44:26.795Z,10.52
2018-12-10T12:46:55.841Z,10.08
2018-12-10T12:49:24.743Z,10.33
2018-12-10T12:51:53.667Z,10.28
2018-12-10T12:54:22.688Z,10.69
2018-12-10T12:56:51.612Z,11.30
2018-12-10T12:59:20.499Z,11.20
2018-12-10T13:01:49.723Z,10.89
2018-12-10T13:04:18.767Z,10.91
2018-12-10T13:06:47.652Z,10.50
2018-12-10T13:09:21.719Z,10.12
2018-12-10T13:11:47.565Z,10.12
2018-12-10T13:14:16.523Z,9.74
2018-12-10T13:16:49.339Z,9.75
2018-12-10T13:19:16.375Z,9.59
2018-12-10T13:21:45.424Z,9.50
2018-12-10T13:24:14.416Z,9.56
2018-12-10T13:26:43.355Z,9.60
2018-12-10T13:29:12.418Z,9.93
2018-12-10T13:31:41.613Z,10.85
2018-12-10T13:34:10.628Z,11.56
2018-12-10T13:36:39.538Z,12.20
2018-12-10T13:39:08.833Z,13.02
2018-12-10T13:41:37.792Z,13.39
2018-12-10T13:44:06.775Z,13.67
2018-12-10T13:46:35.693Z,13.91
2018-12-10T13:49:04.653Z,13.77
2018-12-10T13:51:33.563Z,13.77
2018-12-10T13:54:02.561Z,13.86
2018-12-10T13:56:31.513Z,14.18
2018-12-10T13:59:00.534Z,14.51
2018-12-10T14:01:29.464Z,14.79
2018-12-10T14:03:58.844Z,15.07
2018-12-10T14:06:27.803Z,14.84
2018-12-10T14:08:56.782Z,14.77
2018-12-10T14:11:25.714Z,13.87
2018-12-10T14:13:54.723Z,13.42
2018-12-10T14:16:23.645Z,13.37
2018-12-10T14:18:52.695Z,13.38
2018-12-10T14:21:21.614Z,13.10
2018-12-10T14:23:50.575Z,13.20
2018-12-10T14:26:19.510Z,12.71
2018-12-10T14:28:48.445Z,12.67
2018-12-10T14:31:17.425Z,12.67
2018-12-10T14:33:46.385Z,13.05
2018-12-10T14:36:15.348Z,12.89
2018-12-10T14:38:44.308Z,12.46
2018-12-10T14:41:13.362Z,12.49
2018-12-10T14:43:42.255Z,12.36
2018-12-10T14:46:11.240Z,11.61
2018-12-10T14:48:40.167Z,11.16
2018-12-10T14:51:09.240Z,11.03
2018-12-10T14:53:38.180Z,11.00
2018-12-10T14:56:07.107Z,10.92
2018-12-10T14:58:36.005Z,10.34
2018-12-10T15:01:04.968Z,10.52
2018-12-10T15:03:33.885Z,10.64
2018-12-10T15:06:02.896Z,10.85
2018-12-10T15:08:31.804Z,10.73
2018-12-10T15:11:00.760Z,10.91
2018-12-10T15:13:29.678Z,10.78
2018-12-10T15:15:58.660Z,10.20
2018-12-10T15:18:27.603Z,10.27
2018-12-10T15:20:56.599Z,10.20
2018-12-10T15:23:25.553Z,10.29
2018-12-10T15:25:54.480Z,10.17
2018-12-10T15:28:23.447Z,10.28
2018-12-10T15:30:52.365Z,10.19
2018-12-10T15:33:21.976Z,9.80
2018-12-10T15:35:50.919Z,9.63
2018-12-10T15:38:19.869Z,9.56
2018-12-10T15:40:48.840Z,9.40
2018-12-10T15:43:17.798Z,9.10
2018-12-10T15:45:46.709Z,8.97
2018-12-10T15:48:15.649Z,8.31
2018-12-10T15:50:44.756Z,8.14
2018-12-10T15:53:14.015Z,8.22
2018-12-10T15:55:43.220Z,8.44
2018-12-10T15:58:12.201Z,8.41
2018-12-10T16:00:41.113Z,8.61
2018-12-10T16:03:10.268Z,8.27
2018-12-10T16:05:39.160Z,8.02
2018-12-10T16:08:08.130Z,8.09
2018-12-10T16:10:37.028Z,8.18
2018-12-10T16:13:06.007Z,8.33
2018-12-10T16:15:34.900Z,8.23
2018-12-10T16:18:03.950Z,8.18
2018-12-10T16:20:32.872Z,7.90
2018-12-10T16:23:01.828Z,8.02
2018-12-10T16:25:30.738Z,7.72
2018-12-10T16:27:59.716Z,8.01
2018-12-10T16:30:28.980Z,7.73
2018-12-10T16:32:58.186Z,7.60
2018-12-10T16:35:27.217Z,7.77
2018-12-10T16:37:56.178Z,7.81
2018-12-10T16:40:25.246Z,7.87
2018-12-10T16:42:56.175Z,7.79
2018-12-10T16:45:25.132Z,7.58
2018-12-10T16:47:54.079Z,7.54
2018-12-10T16:50:23.328Z,7.68
2018-12-10T16:52:52.256Z,7.74
2018-12-10T16:55:21.180Z,7.73
2018-12-10T16:57:50.116Z,7.91
2018-12-10T17:00:19.140Z,7.69
2018-12-10T17:02:48.086Z,7.58
2018-12-10T17:05:17.050Z,7.59
2018-12-10T17:07:46.518Z,7.36
2018-12-10T17:10:15.475Z,7.29
2018-12-10T17:12:44.540Z,7.45
2018-12-10T17:15:13.557Z,7.42
2018-12-10T17:17:42.568Z,7.52
2018-12-10T17:20:11.528Z,7.32
2018-12-10T17:22:40.446Z,7.46
2018-12-10T17:25:09.703Z,7.72
2018-12-10T17:27:38.621Z,7.69
2018-12-10T17:30:08.079Z,7.71
2018-12-10T17:32:36.998Z,7.99
2018-12-10T17:35:06.566Z,7.78
2018-12-10T17:37:35.459Z,7.63
2018-12-10T17:40:04.616Z,7.65
2018-12-10T17:42:33.536Z,7.77
2018-12-10T17:45:02.574Z,7.84
2018-12-10T17:47:31.566Z,7.98
2018-12-10T17:50:00.706Z,7.79
2018-12-10T17:52:29.651Z,7.76
2018-12-10T17:54:59.411Z,7.64
2018-12-10T17:57:28.386Z,7.85
2018-12-10T17:59:57.384Z,7.67
2018-12-10T18:02:26.372Z,7.58
2018-12-10T18:04:55.318Z,7.57
2018-12-10T18:07:24.230Z,7.54
2018-12-10T18:09:53.278Z,7.28
2018-12-10T18:12:22.222Z,7.15
2018-12-10T18:14:51.236Z,7.26
2018-12-10T18:17:24.696Z,7.12
2018-12-10T18:19:53.622Z,6.86
2018-12-10T18:22:22.674Z,6.87
2018-12-10T18:24:51.602Z,6.74
2018-12-10T18:27:20.567Z,6.71
2018-12-10T18:29:49.492Z,6.92
2018-12-10T18:32:18.528Z,6.98
2018-12-10T18:34:47.536Z,6.95
2018-12-10T18:37:20.960Z,7.18
2018-12-10T18:39:49.983Z,7.18
2018-12-10T18:42:19.064Z,7.27
2018-12-10T18:44:48.065Z,7.09
2018-12-10T18:47:17.125Z,7.12
2018-12-10T18:49:46.120Z,7.12
2018-12-10T18:52:15.140Z,6.95
2018-12-10T18:54:44.226Z,6.95
2018-12-10T18:57:13.210Z,6.93
2018-12-10T18:59:42.209Z,6.77
2018-12-10T19:02:11.251Z,6.66
2018-12-10T19:04:40.192Z,6.53
2018-12-10T19:07:09.199Z,6.60
2018-12-10T19:09:38.179Z,6.63
2018-12-10T19:12:07.180Z,6.45
2018-12-10T19:14:36.180Z,6.53
2018-12-10T19:17:05.803Z,6.54
2018-12-10T19:19:35.156Z,6.50
2018-12-10T19:22:04.390Z,6.51
2018-12-10T19:24:33.627Z,6.45
2018-12-10T19:27:02.862Z,6.45
2018-12-10T19:29:32.025Z,6.47
2018-12-10T19:32:01.319Z,6.52
2018-12-10T19:34:33.081Z,6.49
2018-12-10T19:37:02.309Z,6.53
2018-12-10T19:39:31.683Z,6.62
2018-12-10T19:42:01.176Z,6.52
2018-12-10T19:44:30.797Z,6.67
2018-12-10T19:47:00.433Z,6.48
2018-12-10T19:49:29.738Z,6.55
2018-12-10T19:51:59.202Z,6.50
2018-12-10T19:54:29.227Z,6.58
2018-12-10T19:56:58.716Z,6.41
2018-12-10T19:59:27.912Z,6.37
2018-12-10T20:01:57.160Z,6.41
2018-12-10T20:04:26.543Z,6.45
2018-12-10T20:07:00.693Z,6.46
2018-12-10T20:09:30.164Z,6.38
2018-12-10T20:11:59.320Z,6.44
2018-12-10T20:14:28.815Z,6.43
2018-12-10T20:16:58.160Z,6.34
2018-12-10T20:19:27.200Z,6.38
2018-12-10T20:21:56.455Z,6.65
2018-12-10T20:24:25.578Z,6.53
2018-12-10T20:26:54.686Z,6.48
2018-12-10T20:29:24.072Z,6.61
2018-12-10T20:31:53.567Z,6.48
2018-12-10T20:34:22.937Z,6.48
2018-12-10T20:36:52.501Z,6.64
2018-12-10T20:39:21.794Z,6.48
2018-12-10T20:41:50.803Z,6.38
2018-12-10T20:44:20.363Z,6.38
2018-12-10T20:46:49.591Z,6.29
2018-12-10T20:49:18.844Z,6.28
2018-12-10T20:51:48.082Z,6.20
2018-12-10T20:54:17.409Z,6.26
2018-12-10T20:56:46.706Z,6.22
2018-12-10T20:59:16.011Z,6.33
2018-12-10T21:01:45.248Z,6.36
2018-12-10T21:04:14.379Z,6.34
2018-12-10T21:06:43.523Z,6.28
2018-12-10T21:09:12.708Z,6.36
2018-12-10T21:11:41.969Z,6.08
2018-12-10T21:14:11.305Z,6.19
2018-12-10T21:16:40.740Z,6.18
2018-12-10T21:19:09.848Z,6.23
2018-12-10T21:21:39.381Z,6.35
2018-12-10T21:24:08.963Z,6.43
2018-12-10T21:26:38.537Z,6.41
2018-12-10T21:29:07.948Z,6.29
2018-12-10T21:31:37.212Z,6.32
2018-12-10T21:34:06.428Z,6.31
2018-12-10T21:36:35.793Z,6.34
2018-12-10T21:39:07.673Z,6.18
2018-12-10T21:41:36.971Z,6.29
2018-12-10T21:44:06.401Z,6.23
2018-12-10T21:46:35.780Z,6.31
2018-12-10T21:49:04.998Z,6.30
2018-12-10T21:51:34.312Z,6.19
2018-12-10T21:54:03.524Z,6.18
2018-12-10T21:56:33.024Z,6.23
2018-12-10T21:59:02.009Z,6.30
2018-12-10T22:01:31.005Z,6.16
2018-12-10T22:04:00.007Z,6.10
2018-12-10T22:06:28.980Z,5.96
2018-12-10T22:08:57.924Z,6.11
2018-12-10T22:11:26.934Z,6.19
2018-12-10T22:13:55.836Z,6.03
2018-12-10T22:16:25.738Z,6.01
2018-12-10T22:18:54.632Z,5.94
2018-12-10T22:21:23.613Z,5.92
2018-12-10T22:23:52.624Z,5.88
2018-12-10T22:26:21.716Z,6.00
2018-12-10T22:28:51.012Z,5.99
2018-12-10T22:31:20.172Z,5.97
2018-12-10T22:33:49.739Z,5.99
2018-12-10T22:36:18.986Z,6.02
2018-12-10T22:38:48.215Z,6.16
2018-12-10T22:41:18.389Z,6.29
2018-12-10T22:43:47.840Z,6.20
2018-12-10T22:46:17.649Z,6.10
2018-12-10T22:48:47.569Z,5.98
2018-12-10T22:51:16.931Z,6.13
2018-12-10T22:53:46.176Z,6.15
2018-12-10T22:56:15.432Z,6.19
2018-12-10T22:58:44.705Z,6.21
2018-12-10T23:01:13.964Z,6.10
2018-12-10T23:03:43.166Z,6.12
2018-12-10T23:06:12.662Z,6.16
2018-12-10T23:08:42.217Z,6.16
2018-12-10T23:11:11.840Z,6.13
2018-12-10T23:13:41.329Z,6.19
2018-12-10T23:16:10.332Z,6.23
2018-12-10T23:18:39.375Z,6.32
2018-12-10T23:21:08.750Z,6.20
2018-12-10T23:23:37.734Z,6.19
2018-12-10T23:26:06.777Z,6.24
2018-12-10T23:28:35.724Z,6.22
2018-12-10T23:31:04.683Z,6.30
2018-12-10T23:33:33.644Z,6.42
2018-12-10T23:36:02.722Z,6.32
2018-12-10T23:38:31.699Z,6.50
2018-12-10T23:41:00.712Z,6.34
2018-12-10T23:43:29.623Z,6.29
2018-12-10T23:45:58.600Z,6.28
2018-12-10T23:48:27.532Z,6.28
2018-12-10T23:50:56.496Z,6.25
2018-12-10T23:53:25.411Z,6.14
2018-12-10T23:55:54.685Z,6.17
2018-12-10T23:58:23.630Z,6.09
